Time;durP1;ratioP1;P1;durP2;ratioP2;P2;SDS_P1;SDS_P2;PMS_P1;PMS_P2;Temp;Humidity;BMP_temperature;BMP_pressure;BME280_temperature;BME280_humidity;BME280_pressure;Samples;Min_cycle;Max_cycle;Signal;HPM_P1;HPM_P2
2023/04/26 00:01:43;;;;;;;7.03;3.55;;;3.10;99.90;;;;;;4988624;28;20038;-65
2023/04/26 00:04:08;;;;;;;6.43;1.88;;;3.00;99.90;;;;;;4987427;28;20034;-63
2023/04/26 00:06:34;;;;;;;10.13;2.42;;;2.90;99.90;;;;;;4989737;28;20567;-65
2023/04/26 00:08:59;;;;;;;4.10;1.92;;;2.80;99.90;;;;;;4989273;28;20102;-63
2023/04/26 00:11:25;;;;;;;10.13;2.40;;;2.80;99.90;;;;;;4982053;28;20034;-64
2023/04/26 00:13:51;;;;;;;10.75;3.55;;;2.80;99.90;;;;;;4993662;28;20057;-63
2023/04/26 00:16:17;;;;;;;7.85;2.63;;;2.70;99.90;;;;;;4986312;28;20030;-63
2023/04/26 00:18:45;;;;;;;9.70;2.40;;;2.70;99.90;;;;;;4988821;28;20030;-64
2023/04/26 00:21:11;;;;;;;6.20;2.33;;;2.60;99.90;;;;;;4987272;28;20108;-64
2023/04/26 00:23:36;;;;;;;7.78;2.38;;;2.60;99.90;;;;;;4985641;28;20070;-64
2023/04/26 00:26:02;;;;;;;8.85;2.33;;;2.60;99.90;;;;;;4987212;28;20105;-65
2023/04/26 00:28:28;;;;;;;4.80;2.15;;;2.50;99.90;;;;;;4987475;28;20121;-64
2023/04/26 00:30:56;;;;;;;9.23;2.15;;;2.50;99.90;;;;;;4990889;28;20551;-65
2023/04/26 00:33:22;;;;;;;5.68;2.00;;;2.50;99.90;;;;;;4972500;28;20069;-65
2023/04/26 00:35:48;;;;;;;4.90;1.83;;;2.50;99.90;;;;;;4990190;28;20034;-65
2023/04/26 00:38:14;;;;;;;5.95;1.92;;;2.40;99.90;;;;;;4989253;28;20408;-64
2023/04/26 00:40:40;;;;;;;9.15;2.03;;;2.40;99.90;;;;;;4992292;28;20030;-64
2023/04/26 00:43:12;;;;;;;5.60;2.78;;;2.40;99.90;;;;;;5027640;23;20128;-66
2023/04/26 00:45:38;;;;;;;11.32;2.53;;;2.40;99.90;;;;;;4981916;28;20026;-66
2023/04/26 00:48:04;;;;;;;8.60;1.50;;;2.30;99.90;;;;;;4989052;28;20088;-65
2023/04/26 00:50:31;;;;;;;8.95;3.10;;;2.30;99.90;;;;;;4991851;28;20365;-66
2023/04/26 00:52:57;;;;;;;5.88;2.72;;;2.30;99.90;;;;;;4992977;28;20026;-66
2023/04/26 00:55:25;;;;;;;7.90;2.38;;;2.20;99.90;;;;;;4988418;28;20030;-66
2023/04/26 00:57:51;;;;;;;16.55;2.70;;;2.20;99.90;;;;;;4981481;28;20034;-66
2023/04/26 01:00:17;;;;;;;5.85;3.03;;;2.10;99.90;;;;;;4983504;28;20052;-66
2023/04/26 01:02:43;;;;;;;8.52;3.80;;;2.10;99.90;;;;;;4986963;28;20061;-66
2023/04/26 01:05:09;;;;;;;12.73;3.60;;;2.00;99.90;;;;;;4986501;28;20025;-65
2023/04/26 01:07:36;;;;;;;8.13;3.03;;;2.00;99.90;;;;;;4989795;28;20029;-66
2023/04/26 01:10:05;;;;;;;8.98;2.78;;;2.00;99.90;;;;;;4980779;28;20023;-66
2023/04/26 01:12:34;;;;;;;13.75;3.15;;;1.90;99.90;;;;;;4990463;28;20098;-66
2023/04/26 01:15:02;;;;;;;11.18;2.83;;;1.90;99.90;;;;;;4984666;28;20149;-66
2023/04/26 01:17:28;;;;;;;12.25;2.53;;;1.90;99.90;;;;;;4982429;28;20037;-66
2023/04/26 01:19:54;;;;;;;6.28;2.65;;;1.80;99.90;;;;;;4982421;28;20439;-66
2023/04/26 01:22:20;;;;;;;7.75;2.55;;;1.80;99.90;;;;;;4962086;28;20034;-66
2023/04/26 01:24:48;;;;;;;8.70;2.42;;;1.80;99.90;;;;;;4987824;28;20077;-68
2023/04/26 01:27:15;;;;;;;6.45;2.53;;;1.80;99.90;;;;;;4979806;28;20038;-66
2023/04/26 01:29:41;;;;;;;12.30;2.30;;;1.80;99.90;;;;;;4981772;28;20087;-65
2023/04/26 01:32:07;;;;;;;6.82;2.60;;;1.80;99.90;;;;;;4968853;28;20042;-65
2023/04/26 01:34:33;;;;;;;7.47;3.30;;;1.80;99.90;;;;;;5006240;28;20022;-66
2023/04/26 01:37:02;;;;;;;10.38;2.22;;;1.70;99.90;;;;;;5008039;28;20068;-65
2023/04/26 01:39:28;;;;;;;7.28;2.40;;;1.70;99.90;;;;;;5003766;28;20620;-65
2023/04/26 01:41:57;;;;;;;14.02;2.78;;;1.70;99.90;;;;;;5006887;28;20076;-65
2023/04/26 01:44:23;;;;;;;8.95;2.80;;;1.70;99.90;;;;;;5002953;28;20037;-65
2023/04/26 01:46:48;;;;;;;10.20;2.45;;;1.70;99.90;;;;;;5003826;28;20026;-65
2023/04/26 01:49:14;;;;;;;9.60;2.95;;;1.70;99.90;;;;;;5011620;28;20068;-66
2023/04/26 01:51:40;;;;;;;5.28;2.45;;;1.70;99.90;;;;;;5012492;28;20545;-65
2023/04/26 01:54:06;;;;;;;4.82;2.72;;;1.70;99.90;;;;;;5004970;28;20029;-66
2023/04/26 01:56:31;;;;;;;10.00;2.17;;;1.70;99.90;;;;;;5010600;28;20570;-65
2023/04/26 01:58:58;;;;;;;6.85;2.45;;;1.60;99.90;;;;;;5004375;28;20033;-66
2023/04/26 02:01:23;;;;;;;9.80;2.97;;;1.60;99.90;;;;;;5005126;28;20117;-66
2023/04/26 02:03:49;;;;;;;8.02;2.22;;;1.50;99.90;;;;;;5006038;28;20090;-66
2023/04/26 02:06:15;;;;;;;4.38;2.22;;;1.50;99.90;;;;;;5003352;28;20492;-66
2023/04/26 02:08:40;;;;;;;8.27;2.50;;;1.50;99.90;;;;;;4998690;28;20034;-66
2023/04/26 02:11:06;;;;;;;7.97;2.50;;;1.40;99.90;;;;;;5005726;28;20479;-66
2023/04/26 02:13:31;;;;;;;9.38;2.75;;;1.40;99.90;;;;;;4999483;28;20400;-65
2023/04/26 02:15:58;;;;;;;8.23;2.72;;;1.40;99.90;;;;;;5008585;28;20022;-66
2023/04/26 02:18:24;;;;;;;7.72;2.30;;;1.40;99.90;;;;;;5005831;28;20117;-66
2023/04/26 02:20:49;;;;;;;7.40;3.13;;;1.30;99.90;;;;;;5007986;28;20564;-66
2023/04/26 02:23:15;;;;;;;9.43;3.30;;;1.30;99.90;;;;;;5002710;28;20030;-65
2023/04/26 02:25:43;;;;;;;5.53;2.63;;;1.30;99.90;;;;;;5004120;28;20034;-66
2023/04/26 02:28:09;;;;;;;11.20;2.92;;;1.20;99.90;;;;;;5001175;28;20160;-65
2023/04/26 02:30:35;;;;;;;5.97;2.55;;;1.20;99.90;;;;;;5009327;28;20116;-65
2023/04/26 02:33:01;;;;;;;8.93;3.10;;;1.20;99.90;;;;;;4987678;28;20075;-67
2023/04/26 02:35:26;;;;;;;6.07;3.20;;;1.20;99.90;;;;;;5003816;28;20026;-66
2023/04/26 02:37:52;;;;;;;7.88;3.03;;;1.20;99.90;;;;;;5004307;28;20038;-64
2023/04/26 02:40:18;;;;;;;12.48;3.80;;;1.20;99.90;;;;;;5001097;28;20619;-66
2023/04/26 02:42:44;;;;;;;14.32;3.10;;;1.10;99.90;;;;;;4998561;28;20026;-66
2023/04/26 02:45:09;;;;;;;11.32;3.00;;;1.10;99.90;;;;;;5006281;28;20392;-66
2023/04/26 02:47:37;;;;;;;8.57;3.53;;;1.10;99.90;;;;;;5004486;28;20114;-66
2023/04/26 02:50:06;;;;;;;15.95;3.35;;;1.10;99.90;;;;;;5005831;28;20018;-68
2023/04/26 02:52:33;;;;;;;7.35;2.67;;;1.10;99.90;;;;;;5007494;28;20133;-66
2023/04/26 02:54:59;;;;;;;8.32;2.70;;;1.10;99.90;;;;;;5007778;28;20025;-65
2023/04/26 02:57:25;;;;;;;10.88;3.08;;;1.10;99.90;;;;;;4992297;28;20026;-65
2023/04/26 02:59:51;;;;;;;10.10;2.97;;;1.00;99.90;;;;;;4995307;28;20037;-65
2023/04/26 03:02:16;;;;;;;9.65;2.85;;;1.00;99.90;;;;;;4994338;28;20018;-65
2023/04/26 03:04:42;;;;;;;6.70;3.42;;;0.90;99.90;;;;;;5010863;28;20082;-65
2023/04/26 03:07:08;;;;;;;6.60;2.55;;;0.90;99.90;;;;;;4991757;28;20021;-66
2023/04/26 03:09:33;;;;;;;8.30;3.10;;;0.90;99.90;;;;;;5007961;28;20037;-65
2023/04/26 03:11:59;;;;;;;9.98;3.22;;;0.80;99.90;;;;;;5005774;28;20018;-68
2023/04/26 03:14:25;;;;;;;10.15;3.50;;;0.80;99.90;;;;;;5007851;28;20029;-67
2023/04/26 03:16:52;;;;;;;6.18;3.03;;;0.80;99.90;;;;;;5009799;28;20101;-67
2023/04/26 03:19:17;;;;;;;10.43;2.70;;;0.70;99.90;;;;;;4986885;28;20026;-65
2023/04/26 03:21:43;;;;;;;9.60;3.58;;;0.70;99.90;;;;;;5005208;28;20039;-66
2023/04/26 03:24:10;;;;;;;11.50;3.80;;;0.70;99.90;;;;;;5001123;28;20021;-68
2023/04/26 03:26:36;;;;;;;8.70;3.83;;;0.70;99.90;;;;;;5006501;28;20586;-65
2023/04/26 03:29:02;;;;;;;6.63;3.05;;;0.70;99.90;;;;;;5002835;28;20113;-67
2023/04/26 03:31:28;;;;;;;9.48;4.07;;;0.70;99.90;;;;;;5007451;28;20030;-64
2023/04/26 03:33:54;;;;;;;10.33;3.33;;;0.60;99.90;;;;;;4989394;28;20516;-65
2023/04/26 03:36:19;;;;;;;5.47;2.90;;;0.60;99.90;;;;;;4999580;28;20492;-68
2023/04/26 03:38:45;;;;;;;16.42;3.45;;;0.60;99.90;;;;;;5008770;28;20030;-65
2023/04/26 03:41:11;;;;;;;6.82;3.10;;;0.60;99.90;;;;;;5002545;28;20035;-66
2023/04/26 03:43:36;;;;;;;10.05;3.65;;;0.50;99.90;;;;;;4999766;28;20042;-68
2023/04/26 03:46:03;;;;;;;8.23;3.55;;;0.50;99.90;;;;;;4999575;28;20026;-67
2023/04/26 03:48:28;;;;;;;8.45;3.63;;;0.50;99.90;;;;;;5003176;28;20566;-68
2023/04/26 03:50:54;;;;;;;9.13;3.20;;;0.50;99.90;;;;;;5003769;28;20132;-65
2023/04/26 03:53:19;;;;;;;10.82;3.47;;;0.50;99.90;;;;;;5004117;28;20029;-65
2023/04/26 03:55:45;;;;;;;8.00;2.90;;;0.50;99.90;;;;;;5006572;28;20022;-65
2023/04/26 03:58:11;;;;;;;6.53;3.00;;;0.50;99.90;;;;;;5001155;28;20053;-66
2023/04/26 04:00:37;;;;;;;6.85;2.97;;;0.40;99.90;;;;;;4996586;28;20034;-65
2023/04/26 04:03:03;;;;;;;10.50;3.47;;;0.40;99.90;;;;;;5001251;28;20377;-66
2023/04/26 04:05:29;;;;;;;9.75;3.30;;;0.40;99.90;;;;;;5004279;28;20018;-66
2023/04/26 04:07:55;;;;;;;8.82;3.78;;;0.40;99.90;;;;;;5003909;28;20522;-66
2023/04/26 04:10:22;;;;;;;12.00;3.38;;;0.40;99.90;;;;;;5005779;28;20092;-65
2023/04/26 04:12:48;;;;;;;17.67;3.53;;;0.30;99.90;;;;;;5002804;28;20022;-64
2023/04/26 04:15:15;;;;;;;12.23;3.57;;;0.40;99.90;;;;;;5003298;28;20023;-65
2023/04/26 04:17:40;;;;;;;9.83;5.33;;;0.30;99.90;;;;;;5006938;28;20041;-65
2023/04/26 04:20:06;;;;;;;15.47;5.20;;;0.30;99.90;;;;;;5009243;28;20014;-66
2023/04/26 04:22:32;;;;;;;17.10;6.07;;;0.30;99.90;;;;;;5003242;28;20058;-65
2023/04/26 04:24:58;;;;;;;14.00;6.00;;;0.30;99.90;;;;;;5010649;28;20052;-65
2023/04/26 04:27:25;;;;;;;13.87;6.53;;;0.40;99.90;;;;;;5004783;28;20025;-65
2023/04/26 04:29:50;;;;;;;5.55;3.30;;;0.50;99.90;;;;;;5009658;28;20030;-65
2023/04/26 04:32:16;;;;;;;9.35;3.35;;;0.50;99.90;;;;;;5005837;28;20025;-66
2023/04/26 04:34:43;;;;;;;9.13;3.27;;;0.50;99.90;;;;;;4990100;28;20076;-66
2023/04/26 04:37:08;;;;;;;5.00;2.63;;;0.50;99.90;;;;;;5008143;28;20073;-67
2023/04/26 04:39:34;;;;;;;7.70;3.35;;;0.50;99.90;;;;;;5005615;28;20061;-66
2023/04/26 04:42:00;;;;;;;10.43;5.00;;;0.50;99.90;;;;;;4996785;28;20467;-66
2023/04/26 04:44:25;;;;;;;9.40;3.47;;;0.60;99.90;;;;;;5003527;28;20040;-65
2023/04/26 04:46:51;;;;;;;10.97;3.90;;;0.60;99.90;;;;;;5006539;28;20030;-66
2023/04/26 04:49:17;;;;;;;9.45;4.68;;;0.70;99.90;;;;;;4990535;28;20030;-66
2023/04/26 04:51:43;;;;;;;10.45;4.22;;;0.80;99.90;;;;;;5001050;28;20044;-66
2023/04/26 04:54:14;;;;;;;13.38;6.70;;;0.80;99.90;;;;;;5001943;28;20403;-66
2023/04/26 04:56:40;;;;;;;31.02;8.88;;;0.90;99.90;;;;;;5003687;28;20029;-66
2023/04/26 04:59:07;;;;;;;19.65;7.97;;;1.00;99.90;;;;;;5005123;28;20084;-66
2023/04/26 05:01:33;;;;;;;18.80;6.25;;;1.20;99.90;;;;;;5005281;28;20529;-66
2023/04/26 05:03:59;;;;;;;17.85;5.78;;;1.30;99.90;;;;;;5007586;28;20026;-66
2023/04/26 05:06:26;;;;;;;16.05;4.45;;;1.50;99.90;;;;;;5007337;28;20109;-66
2023/04/26 05:08:53;;;;;;;11.55;3.58;;;1.80;99.90;;;;;;4997336;28;20391;-65
2023/04/26 05:11:18;;;;;;;11.80;3.17;;;2.30;99.90;;;;;;5004315;28;20026;-65
2023/04/26 05:13:45;;;;;;;11.48;2.65;;;3.00;99.90;;;;;;5004209;28;20049;-66
2023/04/26 05:16:11;;;;;;;11.57;3.03;;;3.70;99.90;;;;;;5004060;28;20525;-66
2023/04/26 05:18:37;;;;;;;6.05;2.47;;;4.70;99.90;;;;;;5004855;28;20062;-66
2023/04/26 05:21:03;;;;;;;14.57;3.63;;;5.30;99.90;;;;;;5004751;28;20034;-67
2023/04/26 05:23:28;;;;;;;24.27;7.70;;;5.90;99.90;;;;;;5008723;28;20030;-66
2023/04/26 05:25:54;;;;;;;15.63;5.82;;;6.80;99.90;;;;;;5003566;28;20492;-66
2023/04/26 05:28:20;;;;;;;23.58;5.13;;;7.10;99.90;;;;;;5003689;28;20029;-66
2023/04/26 05:30:45;;;;;;;13.27;5.63;;;7.50;99.90;;;;;;5003086;28;20052;-66
2023/04/26 05:33:11;;;;;;;25.25;11.02;;;7.90;99.90;;;;;;5004149;28;20022;-66
2023/04/26 05:35:37;;;;;;;47.05;22.13;;;9.00;99.90;;;;;;4987698;28;20128;-67
2023/04/26 05:38:02;;;;;;;24.10;12.40;;;9.40;99.50;;;;;;5003875;28;20052;-66
2023/04/26 05:40:28;;;;;;;21.40;8.82;;;9.90;98.20;;;;;;5005029;28;20041;-67
2023/04/26 05:42:54;;;;;;;14.20;6.93;;;9.80;98.10;;;;;;4985298;28;20050;-67
2023/04/26 05:45:20;;;;;;;9.75;6.40;;;9.50;97.80;;;;;;4985691;28;20076;-67
2023/04/26 05:47:46;;;;;;;10.45;4.30;;;9.30;97.80;;;;;;5005015;28;20018;-67
2023/04/26 05:50:12;;;;;;;6.93;2.50;;;8.90;99.30;;;;;;5003251;28;20038;-67
2023/04/26 05:52:37;;;;;;;5.95;2.33;;;9.00;98.90;;;;;;5004279;28;20511;-67
2023/04/26 05:55:04;;;;;;;4.78;2.40;;;9.40;98.40;;;;;;5007037;28;20026;-67
2023/04/26 05:57:30;;;;;;;5.28;2.67;;;9.80;97.30;;;;;;4983134;28;20029;-67
2023/04/26 05:59:56;;;;;;;5.55;2.42;;;9.60;97.70;;;;;;5000917;28;20030;-67
2023/04/26 06:02:21;;;;;;;5.05;2.70;;;10.20;96.00;;;;;;5003301;28;20030;-67
2023/04/26 06:04:47;;;;;;;7.85;2.50;;;10.10;96.40;;;;;;4986052;28;20022;-67
2023/04/26 06:07:13;;;;;;;5.47;2.38;;;10.50;96.30;;;;;;5005978;28;20113;-67
2023/04/26 06:09:38;;;;;;;6.07;2.67;;;11.10;95.00;;;;;;5004812;28;20037;-67
2023/04/26 06:12:04;;;;;;;5.65;2.45;;;11.40;93.90;;;;;;5003872;28;20030;-67
2023/04/26 06:14:30;;;;;;;6.28;2.15;;;11.50;93.50;;;;;;5007236;28;20025;-67
2023/04/26 06:16:56;;;;;;;7.35;2.40;;;12.10;94.40;;;;;;4997261;28;20881;-67
2023/04/26 06:19:22;;;;;;;6.35;2.22;;;13.90;92.40;;;;;;5007242;28;20026;-67
2023/04/26 06:21:47;;;;;;;5.47;2.15;;;14.00;88.20;;;;;;5003812;28;20042;-67
2023/04/26 06:24:13;;;;;;;8.45;2.58;;;13.90;89.10;;;;;;5006267;28;20018;-67
2023/04/26 06:26:39;;;;;;;4.53;2.22;;;14.00;90.30;;;;;;5002610;28;20510;-67
2023/04/26 06:29:06;;;;;;;4.70;1.98;;;14.80;89.50;;;;;;4993484;28;20439;-67
2023/04/26 06:31:31;;;;;;;4.82;2.92;;;16.10;85.70;;;;;;5011818;28;20072;-67
2023/04/26 06:33:57;;;;;;;6.30;2.05;;;17.10;80.60;;;;;;5005212;28;20026;-67
2023/04/26 06:36:23;;;;;;;6.07;2.80;;;17.70;78.70;;;;;;4990018;28;20511;-67
2023/04/26 06:38:48;;;;;;;5.72;2.70;;;15.60;79.20;;;;;;5007308;28;20022;-67
2023/04/26 06:41:14;;;;;;;6.30;2.60;;;14.70;83.20;;;;;;5007652;28;20026;-67
2023/04/26 06:46:07;;;;;;;7.85;2.42;;;15.50;84.00;;;;;;5012984;28;20111;-66
2023/04/26 06:48:33;;;;;;;7.28;2.97;;;15.80;81.20;;;;;;5023278;28;20597;-64
2023/04/26 06:51:04;;;;;;;5.00;2.30;;;15.40;82.10;;;;;;5005600;28;20120;-66
2023/04/26 06:53:30;;;;;;;9.18;3.00;;;17.40;79.70;;;;;;5028280;28;20479;-65
2023/04/26 06:55:57;;;;;;;6.93;2.60;;;17.10;78.80;;;;;;5024673;28;20033;-63
2023/04/26 06:58:22;;;;;;;9.05;2.90;;;17.80;77.80;;;;;;5022555;28;20041;-66
2023/04/26 07:00:48;;;;;;;6.25;3.10;;;17.90;77.50;;;;;;5026139;28;20148;-65
2023/04/26 07:03:13;;;;;;;7.18;3.17;;;18.90;74.00;;;;;;5027445;28;20487;-65
2023/04/26 07:05:40;;;;;;;5.50;3.13;;;17.90;75.20;;;;;;5008220;28;20462;-64
2023/04/26 07:08:05;;;;;;;6.07;2.97;;;18.80;73.60;;;;;;5023749;28;20041;-64
2023/04/26 07:10:31;;;;;;;10.88;3.40;;;18.20;75.20;;;;;;5021022;28;20029;-66
2023/04/26 07:12:56;;;;;;;13.13;4.35;;;19.10;72.20;;;;;;5029123;28;20036;-64
2023/04/26 07:15:22;;;;;;;9.68;4.30;;;17.60;75.00;;;;;;5019003;28;20044;-64
2023/04/26 07:17:48;;;;;;;8.63;3.72;;;17.10;75.60;;;;;;5022739;28;20029;-65
2023/04/26 07:20:18;;;;;;;9.50;3.88;;;18.40;74.40;;;;;;5022655;28;20024;-64
2023/04/26 07:22:44;;;;;;;9.00;3.60;;;18.50;74.40;;;;;;5023133;28;20036;-65
2023/04/26 07:25:10;;;;;;;9.50;3.55;;;19.30;72.40;;;;;;5018725;28;20029;-64
2023/04/26 07:27:35;;;;;;;11.52;4.63;;;18.10;73.20;;;;;;5023033;28;20104;-64
2023/04/26 07:30:01;;;;;;;12.35;4.82;;;17.60;73.00;;;;;;5023765;28;20029;-64
2023/04/26 07:32:27;;;;;;;10.43;4.95;;;16.50;75.20;;;;;;5023738;28;20029;-64
2023/04/26 07:34:52;;;;;;;11.55;4.72;;;15.60;77.20;;;;;;5011703;28;20104;-64
2023/04/26 07:37:18;;;;;;;8.02;4.25;;;15.10;79.50;;;;;;5027192;28;20979;-64
2023/04/26 07:39:44;;;;;;;7.05;4.32;;;15.40;78.00;;;;;;5027772;28;20041;-65
2023/04/26 07:42:09;;;;;;;15.23;5.38;;;15.00;81.60;;;;;;5022509;28;20084;-64
2023/04/26 07:44:35;;;;;;;9.88;5.43;;;15.50;77.70;;;;;;5023160;28;20030;-64
2023/04/26 07:47:00;;;;;;;14.50;5.30;;;15.30;80.50;;;;;;5023341;28;20079;-63
2023/04/26 07:49:26;;;;;;;15.18;5.30;;;14.40;79.20;;;;;;5026447;28;20450;-65
2023/04/26 07:51:52;;;;;;;12.27;5.30;;;13.60;79.10;;;;;;5018498;28;20124;-64
2023/04/26 07:54:17;;;;;;;11.68;4.22;;;13.50;79.90;;;;;;5018149;28;20045;-65
2023/04/26 07:56:43;;;;;;;14.75;5.40;;;14.20;80.30;;;;;;5026942;28;20495;-65
2023/04/26 07:59:08;;;;;;;10.25;3.95;;;15.60;77.10;;;;;;4999742;28;20030;-66
2023/04/26 08:01:34;;;;;;;10.15;3.30;;;14.20;76.70;;;;;;5024073;28;20033;-64
2023/04/26 08:03:59;;;;;;;9.32;3.55;;;13.40;77.10;;;;;;5026939;28;20567;-64
2023/04/26 08:06:26;;;;;;;9.30;3.35;;;12.60;79.00;;;;;;5023666;28;20021;-65
2023/04/26 08:08:52;;;;;;;12.05;4.22;;;12.20;82.00;;;;;;5007476;28;20033;-64
2023/04/26 08:11:18;;;;;;;50.20;18.60;;;11.60;83.90;;;;;;5021199;28;20053;-64
2023/04/26 08:13:44;;;;;;;38.05;14.60;;;11.20;86.50;;;;;;5023490;28;20064;-66
2023/04/26 08:16:09;;;;;;;18.90;7.97;;;10.90;86.90;;;;;;5026938;28;20044;-67
2023/04/26 08:18:35;;;;;;;13.48;5.15;;;10.90;86.90;;;;;;5027886;28;20073;-65
2023/04/26 08:21:01;;;;;;;24.13;11.65;;;11.10;87.50;;;;;;5022979;28;20033;-64
2023/04/26 08:23:27;;;;;;;10.20;4.93;;;11.60;88.20;;;;;;5025163;28;20399;-63
2023/04/26 08:25:53;;;;;;;11.45;5.75;;;11.70;86.20;;;;;;5020102;28;20517;-63
2023/04/26 08:28:18;;;;;;;14.05;5.22;;;11.50;86.10;;;;;;5023574;28;20030;-63
2023/04/26 08:30:44;;;;;;;15.90;5.43;;;11.80;87.10;;;;;;5004644;28;20107;-65
2023/04/26 08:33:10;;;;;;;13.70;5.00;;;12.10;86.20;;;;;;5002090;28;20032;-64
2023/04/26 08:35:35;;;;;;;11.40;4.45;;;12.80;83.20;;;;;;5029247;28;20469;-62
2023/04/26 08:38:01;;;;;;;8.07;5.30;;;12.90;83.50;;;;;;5014577;28;20057;-63
2023/04/26 08:40:26;;;;;;;20.02;5.70;;;12.50;82.30;;;;;;5029047;28;20022;-64
2023/04/26 08:42:52;;;;;;;10.95;5.07;;;12.30;82.80;;;;;;5028008;28;20048;-63
2023/04/26 08:45:20;;;;;;;15.52;6.05;;;11.90;85.20;;;;;;5025936;28;20032;-64
2023/04/26 08:47:51;;;;;;;12.20;5.65;;;11.60;85.30;;;;;;5025905;28;20025;-65
2023/04/26 08:50:22;;;;;;;15.93;4.82;;;11.80;90.40;;;;;;5024400;28;20082;-66
2023/04/26 08:52:50;;;;;;;13.15;4.95;;;11.60;86.30;;;;;;5027932;28;20040;-65
2023/04/26 08:55:17;;;;;;;16.13;4.95;;;11.60;85.20;;;;;;5029618;28;20025;-66
2023/04/26 08:57:46;;;;;;;21.23;5.22;;;11.40;85.00;;;;;;5030829;28;20506;-66
2023/04/26 09:00:13;;;;;;;17.88;6.63;;;11.70;88.30;;;;;;5027018;28;20128;-67
2023/04/26 09:02:46;;;;;;;13.20;5.22;;;11.60;82.40;;;;;;5030646;28;20025;-63
2023/04/26 09:05:11;;;;;;;9.53;5.07;;;12.20;83.00;;;;;;5029731;28;20026;-65
2023/04/26 09:07:43;;;;;;;7.60;3.90;;;12.10;80.90;;;;;;5023880;28;20805;-65
2023/04/26 09:10:10;;;;;;;8.43;4.13;;;12.80;78.20;;;;;;5024028;28;20113;-63
2023/04/26 09:12:36;;;;;;;6.57;4.18;;;12.60;79.90;;;;;;5020686;28;20033;-63
2023/04/26 09:15:06;;;;;;;8.43;5.28;;;12.20;82.50;;;;;;5029060;28;20021;-65
2023/04/26 09:17:37;;;;;;;11.95;5.97;;;12.50;82.60;;;;;;5028753;28;20099;-63
2023/04/26 09:20:29;;;;;;;11.02;4.57;;;12.10;83.30;;;;;;5030251;28;20037;-63
2023/04/26 09:23:06;;;;;;;12.07;4.65;;;12.60;84.60;;;;;;5025078;28;20022;-64
2023/04/26 09:25:32;;;;;;;9.63;4.25;;;12.70;82.60;;;;;;5022589;28;20049;-64
2023/04/26 09:27:58;;;;;;;8.10;4.03;;;12.50;80.40;;;;;;5026384;28;20064;-65
2023/04/26 09:30:25;;;;;;;7.75;4.15;;;12.40;80.80;;;;;;5032346;28;20108;-64
2023/04/26 09:32:59;;;;;;;6.93;2.85;;;12.30;81.40;;;;;;5028811;28;20614;-63
2023/04/26 09:35:34;;;;;;;6.32;3.90;;;12.60;82.50;;;;;;5031338;28;20048;-64
2023/04/26 09:38:02;;;;;;;6.88;2.35;;;12.60;79.10;;;;;;5011343;28;20455;-63
2023/04/26 09:40:34;;;;;;;4.10;1.70;;;12.80;76.20;;;;;;5026684;28;20025;-64
2023/04/26 09:43:05;;;;;;;6.78;2.38;;;12.80;72.50;;;;;;5023259;28;20017;-63
2023/04/26 09:45:43;;;;;;;7.57;3.15;;;12.90;73.60;;;;;;5019817;28;20037;-65
2023/04/26 09:48:15;;;;;;;7.05;2.75;;;12.80;73.80;;;;;;5025636;28;20025;-64
2023/04/26 09:50:45;;;;;;;9.15;3.08;;;13.30;74.80;;;;;;5027296;28;20038;-63
2023/04/26 09:53:35;;;;;;;10.07;3.10;;;13.70;73.40;;;;;;5024395;28;20025;-61
2023/04/26 09:56:08;;;;;;;7.45;3.20;;;13.90;74.50;;;;;;5022875;28;20055;-63
2023/04/26 09:58:36;;;;;;;7.05;3.05;;;13.30;74.80;;;;;;5021060;28;20388;-67
2023/04/26 10:01:03;;;;;;;10.30;3.78;;;12.90;75.70;;;;;;5019410;28;20034;-61
2023/04/26 10:03:30;;;;;;;8.13;3.22;;;12.90;79.30;;;;;;5027703;28;20562;-66
2023/04/26 10:05:56;;;;;;;8.63;3.67;;;12.80;81.10;;;;;;5025673;28;20033;-63
2023/04/26 10:08:22;;;;;;;10.05;3.47;;;12.80;79.40;;;;;;5024219;28;20086;-62
2023/04/26 10:10:48;;;;;;;5.35;2.88;;;13.00;76.70;;;;;;5026898;28;20049;-62
2023/04/26 10:13:15;;;;;;;4.32;2.90;;;12.40;77.60;;;;;;5026897;28;20032;-64
2023/04/26 10:15:41;;;;;;;11.88;3.13;;;12.70;76.50;;;;;;5010517;28;20030;-64
2023/04/26 10:18:07;;;;;;;7.55;3.47;;;12.60;77.60;;;;;;5023527;28;20026;-64
2023/04/26 10:20:35;;;;;;;7.10;3.42;;;12.20;79.10;;;;;;5023393;28;20100;-64
2023/04/26 10:23:02;;;;;;;4.95;2.40;;;12.10;77.60;;;;;;5027450;28;20080;-66
2023/04/26 10:25:40;;;;;;;6.85;3.05;;;12.50;76.90;;;;;;5026682;28;20021;-65
2023/04/26 10:28:06;;;;;;;7.40;2.92;;;12.70;78.70;;;;;;5023351;28;20050;-64
2023/04/26 10:30:32;;;;;;;7.25;3.35;;;13.00;75.10;;;;;;5031385;28;20052;-63
2023/04/26 10:32:57;;;;;;;8.35;2.88;;;13.30;75.40;;;;;;5021715;28;20043;-63
2023/04/26 10:35:25;;;;;;;9.38;2.70;;;13.70;74.20;;;;;;5025753;28;20032;-65
2023/04/26 10:38:00;;;;;;;10.25;3.95;;;13.90;76.50;;;;;;5015994;28;20132;-64
2023/04/26 10:40:30;;;;;;;4.75;2.60;;;13.90;75.00;;;;;;5026798;28;20068;-65
2023/04/26 10:43:12;;;;;;;6.50;2.70;;;13.80;74.30;;;;;;5025163;28;20025;-63
2023/04/26 10:45:39;;;;;;;7.22;2.72;;;13.30;72.80;;;;;;5023959;28;20037;-64
2023/04/26 10:48:27;;;;;;;9.13;3.00;;;13.70;73.70;;;;;;5019798;28;20018;-63
2023/04/26 10:51:04;;;;;;;11.80;3.58;;;13.50;72.40;;;;;;5027974;28;20075;-64
2023/04/26 10:53:31;;;;;;;13.77;3.63;;;13.20;75.60;;;;;;5030123;28;20554;-64
2023/04/26 10:55:57;;;;;;;13.52;4.78;;;13.50;75.20;;;;;;5023060;28;20128;-65
2023/04/26 10:58:32;;;;;;;10.63;3.33;;;13.30;76.30;;;;;;5024034;28;20041;-63
2023/04/26 11:01:10;;;;;;;12.35;3.88;;;13.40;74.00;;;;;;5012534;28;20026;-64
2023/04/26 11:03:37;;;;;;;9.85;3.20;;;13.90;71.60;;;;;;5007957;28;20034;-66
2023/04/26 11:06:08;;;;;;;5.38;2.90;;;14.00;74.30;;;;;;5026381;28;20029;-63
2023/04/26 11:08:35;;;;;;;7.53;2.83;;;14.00;70.60;;;;;;5022230;28;20061;-63
2023/04/26 11:11:07;;;;;;;10.02;3.38;;;13.80;71.20;;;;;;5028943;28;20100;-65
2023/04/26 11:13:38;;;;;;;5.63;2.60;;;14.50;69.10;;;;;;5023440;28;21795;-65
2023/04/26 11:16:08;;;;;;;7.35;4.20;;;14.80;72.40;;;;;;5026785;28;20025;-64
2023/04/26 11:18:37;;;;;;;5.05;2.65;;;14.20;71.00;;;;;;5019667;28;20376;-63
2023/04/26 11:21:04;;;;;;;5.00;2.90;;;14.40;72.00;;;;;;5024834;28;20021;-63
2023/04/26 11:23:30;;;;;;;12.15;3.30;;;13.80;73.70;;;;;;5024239;28;20029;-64
2023/04/26 11:26:03;;;;;;;10.55;3.35;;;13.70;72.30;;;;;;5002401;28;21671;-64
2023/04/26 11:28:30;;;;;;;7.70;3.42;;;13.90;72.40;;;;;;5022351;28;20029;-64
2023/04/26 11:30:57;;;;;;;13.13;4.85;;;13.50;72.80;;;;;;5029401;28;20399;-64
2023/04/26 11:33:22;;;;;;;8.18;3.00;;;13.40;73.20;;;;;;5020032;28;20037;-64
2023/04/26 11:35:50;;;;;;;4.95;2.72;;;13.30;71.60;;;;;;5030156;28;20364;-64
2023/04/26 11:38:16;;;;;;;6.13;3.08;;;13.10;73.70;;;;;;5009547;28;20499;-65
2023/04/26 11:40:41;;;;;;;7.07;2.63;;;13.00;73.40;;;;;;5021590;28;20092;-64
2023/04/26 11:43:08;;;;;;;5.80;2.65;;;13.10;74.10;;;;;;5023860;28;20377;-63
2023/04/26 11:45:36;;;;;;;5.88;3.42;;;13.10;72.90;;;;;;5024924;28;20036;-63
2023/04/26 11:48:03;;;;;;;8.43;2.80;;;13.10;72.80;;;;;;5028358;28;20025;-65
2023/04/26 11:50:31;;;;;;;12.65;3.67;;;13.60;70.80;;;;;;5026363;28;20033;-66
2023/04/26 11:52:59;;;;;;;6.80;2.53;;;13.40;70.60;;;;;;5024069;28;20037;-64
2023/04/26 11:55:30;;;;;;;6.43;2.60;;;13.60;71.00;;;;;;5026487;28;20017;-65
2023/04/26 11:57:57;;;;;;;11.77;3.33;;;14.00;70.80;;;;;;5025980;28;20120;-63
2023/04/26 12:00:23;;;;;;;11.10;4.20;;;13.70;71.20;;;;;;5007139;28;20691;-63
2023/04/26 12:02:50;;;;;;;10.85;5.10;;;13.70;73.50;;;;;;5027075;28;20025;-65
2023/04/26 12:05:23;;;;;;;6.85;2.80;;;13.70;71.60;;;;;;5030599;28;20022;-62
2023/04/26 12:07:51;;;;;;;6.47;2.63;;;14.10;70.90;;;;;;5031669;28;20045;-64
2023/04/26 12:10:19;;;;;;;8.50;3.45;;;14.30;71.10;;;;;;5010597;28;20104;-62
2023/04/26 12:12:48;;;;;;;7.50;2.78;;;14.50;68.30;;;;;;5030625;28;20026;-64
2023/04/26 12:15:14;;;;;;;11.30;2.88;;;14.90;68.50;;;;;;5013560;28;20033;-65
2023/04/26 12:17:40;;;;;;;4.35;2.22;;;14.70;69.20;;;;;;5032682;28;20506;-65
2023/04/26 12:20:12;;;;;;;8.02;3.20;;;14.60;70.80;;;;;;5033048;28;20080;-66
2023/04/26 12:22:37;;;;;;;7.65;3.00;;;14.50;71.40;;;;;;5032838;28;20028;-64
2023/04/26 12:25:07;;;;;;;7.70;2.97;;;14.40;69.70;;;;;;5031202;28;20120;-64
2023/04/26 12:27:32;;;;;;;6.10;2.88;;;14.40;70.50;;;;;;5031618;28;20025;-66
2023/04/26 12:29:58;;;;;;;7.35;3.25;;;14.20;71.50;;;;;;5026721;28;20391;-65
2023/04/26 12:32:24;;;;;;;7.63;2.55;;;14.70;68.40;;;;;;5029337;28;20083;-63
2023/04/26 12:34:50;;;;;;;7.88;2.78;;;14.70;67.90;;;;;;5031889;28;20033;-65
2023/04/26 12:37:15;;;;;;;9.60;3.55;;;14.60;68.00;;;;;;5021169;28;20050;-65
2023/04/26 12:39:42;;;;;;;12.15;3.97;;;14.40;69.40;;;;;;5027721;28;20069;-65
2023/04/26 12:42:08;;;;;;;4.53;2.25;;;14.30;69.30;;;;;;5026517;28;20025;-65
2023/04/26 12:44:33;;;;;;;4.53;2.08;;;13.70;68.90;;;;;;5001412;28;20095;-63
2023/04/26 12:46:59;;;;;;;7.88;2.25;;;13.70;69.20;;;;;;5023265;28;20468;-65
2023/04/26 12:49:25;;;;;;;6.13;2.60;;;13.80;70.80;;;;;;5048389;23;20042;-66